Time;durP1;ratioP1;P1;durP2;ratioP2;P2;SDS_P1;SDS_P2;PMS_P1;PMS_P2;Temp;Humidity;BMP_temperature;BMP_pressure;BME280_temperature;BME280_humidity;BME280_pressure;Samples;Min_cycle;Max_cycle;Signal;HPM_P1;HPM_P2
2021/12/23 00:00:06;;;;;;;23.77;13.00;;;-4.20;66.50;;;;;;5030754;28;20579;-72
2021/12/23 00:02:35;;;;;;;19.55;12.70;;;-4.20;66.10;;;;;;5042540;28;20503;-71
2021/12/23 00:05:02;;;;;;;25.30;14.43;;;-4.30;66.20;;;;;;5030760;28;20207;-71
2021/12/23 00:07:29;;;;;;;22.73;13.82;;;-4.20;66.80;;;;;;5029899;28;21204;-71
2021/12/23 00:10:04;;;;;;;25.50;14.85;;;-4.30;67.80;;;;;;5030710;28;20199;-72
2021/12/23 00:12:31;;;;;;;25.17;14.15;;;-4.30;68.60;;;;;;5010919;28;20275;-71
2021/12/23 00:14:58;;;;;;;26.35;14.88;;;-4.30;68.60;;;;;;5011401;28;20274;-70
2021/12/23 00:17:40;;;;;;;22.27;12.98;;;-4.30;68.50;;;;;;5024938;28;20539;-71
2021/12/23 00:25:39;;;;;;;25.67;14.10;;;-4.20;67.40;;;;;;5025237;28;20505;-72
2021/12/23 00:28:06;;;;;;;36.67;14.70;;;-4.30;67.10;;;;;;5011108;28;20203;-71
2021/12/23 00:30:33;;;;;;;30.42;15.13;;;-4.40;67.80;;;;;;5014817;28;20233;-71
2021/12/23 00:33:00;;;;;;;26.75;12.48;;;-4.40;68.30;;;;;;5030801;28;20245;-71
2021/12/23 00:35:30;;;;;;;23.70;12.20;;;-4.30;67.80;;;;;;5027311;28;20927;-71
2021/12/23 00:38:01;;;;;;;23.30;12.45;;;-4.40;68.10;;;;;;5010437;28;20196;-70
2021/12/23 00:40:28;;;;;;;21.42;12.25;;;-4.40;68.40;;;;;;5011961;28;20199;-70
2021/12/23 00:42:56;;;;;;;23.10;13.40;;;-4.40;68.60;;;;;;5030031;28;20329;-71
2021/12/23 00:45:27;;;;;;;26.25;12.60;;;-4.40;68.60;;;;;;5028307;28;20195;-71
2021/12/23 00:47:54;;;;;;;25.17;12.75;;;-4.40;68.40;;;;;;5010221;28;20225;-71
2021/12/23 00:50:22;;;;;;;22.05;12.23;;;-4.40;68.20;;;;;;5010108;28;20211;-71
2021/12/23 00:52:56;;;;;;;23.90;12.32;;;-4.40;67.50;;;;;;5029816;28;20677;-71
2021/12/23 00:55:23;;;;;;;16.48;10.30;;;-4.50;68.10;;;;;;5010062;28;20274;-71
2021/12/23 00:57:51;;;;;;;26.30;13.82;;;-4.40;67.70;;;;;;5010001;28;20254;-70
2021/12/23 01:00:20;;;;;;;26.17;15.05;;;-4.40;67.90;;;;;;5027951;28;20629;-71
2021/12/23 01:02:47;;;;;;;25.50;13.48;;;-4.40;68.20;;;;;;5029943;28;20187;-71
2021/12/23 01:05:17;;;;;;;21.60;13.02;;;-4.40;68.10;;;;;;5011996;28;20191;-71
2021/12/23 01:07:44;;;;;;;23.45;13.00;;;-4.30;68.20;;;;;;5009640;28;20200;-70
2021/12/23 01:10:14;;;;;;;30.58;12.85;;;-4.30;68.40;;;;;;5021540;28;20717;-71
2021/12/23 01:12:46;;;;;;;23.45;13.00;;;-4.30;68.30;;;;;;5009743;28;20548;-71
2021/12/23 01:15:17;;;;;;;19.33;11.35;;;-4.30;68.10;;;;;;5010025;28;20306;-70
2021/12/23 01:17:55;;;;;;;26.38;13.07;;;-4.30;68.10;;;;;;5026315;28;20195;-72
2021/12/23 01:20:27;;;;;;;27.80;11.90;;;-4.40;68.10;;;;;;5029429;28;20610;-71
2021/12/23 01:22:55;;;;;;;23.00;12.18;;;-4.40;68.00;;;;;;5011078;28;20196;-72
2021/12/23 01:25:24;;;;;;;19.95;11.10;;;-4.40;67.20;;;;;;5011304;28;20685;-71
2021/12/23 01:27:51;;;;;;;25.42;12.55;;;-4.50;66.60;;;;;;5029950;28;20273;-71
2021/12/23 01:30:20;;;;;;;24.00;12.20;;;-4.50;66.80;;;;;;5033018;28;20196;-71
2021/12/23 01:32:49;;;;;;;18.75;10.75;;;-4.50;66.90;;;;;;5016749;28;20271;-71
2021/12/23 01:35:17;;;;;;;19.52;11.65;;;-4.60;66.90;;;;;;5012661;28;20239;-70
2021/12/23 01:37:45;;;;;;;17.48;10.82;;;-4.60;67.20;;;;;;5027472;28;20191;-71
2021/12/23 01:40:14;;;;;;;17.60;10.48;;;-4.70;67.10;;;;;;5032539;28;20605;-71
2021/12/23 01:42:43;;;;;;;17.45;10.45;;;-4.70;67.20;;;;;;5018424;28;20536;-71
2021/12/23 01:45:13;;;;;;;15.90;10.65;;;-4.60;67.50;;;;;;5013018;28;20202;-71
2021/12/23 01:47:40;;;;;;;13.40;8.50;;;-4.60;67.90;;;;;;5025783;28;20271;-71
2021/12/23 01:50:12;;;;;;;29.48;11.63;;;-4.70;67.30;;;;;;5021126;28;20234;-71
2021/12/23 01:52:40;;;;;;;20.70;11.40;;;-4.60;67.30;;;;;;5012923;28;20196;-71
2021/12/23 01:55:09;;;;;;;16.75;9.90;;;-4.60;67.30;;;;;;5022946;28;20204;-71
2021/12/23 01:57:39;;;;;;;20.98;11.02;;;-4.70;67.50;;;;;;5028650;28;20192;-71
2021/12/23 02:00:10;;;;;;;19.73;9.57;;;-4.70;67.80;;;;;;5012613;28;20223;-70
2021/12/23 02:02:38;;;;;;;16.42;9.75;;;-4.60;67.90;;;;;;5015365;28;20191;-71
2021/12/23 02:05:06;;;;;;;17.00;11.65;;;-4.60;67.70;;;;;;5032341;28;20196;-70
2021/12/23 02:07:34;;;;;;;17.00;11.90;;;-4.60;67.90;;;;;;5030060;28;20290;-70
2021/12/23 02:10:01;;;;;;;23.02;10.93;;;-4.50;68.00;;;;;;5012427;28;20200;-71
2021/12/23 02:12:29;;;;;;;17.65;10.65;;;-4.60;67.20;;;;;;5012550;28;20242;-71
2021/12/23 02:14:56;;;;;;;20.92;11.93;;;-4.60;66.30;;;;;;5031779;28;20701;-71
2021/12/23 02:17:25;;;;;;;18.27;10.82;;;-4.70;66.50;;;;;;5032217;28;20628;-70
2021/12/23 02:19:55;;;;;;;18.00;10.23;;;-4.70;66.90;;;;;;5031619;28;20192;-70
2021/12/23 02:22:23;;;;;;;18.83;10.45;;;-4.70;67.30;;;;;;5027169;28;20193;-71
2021/12/23 02:24:50;;;;;;;17.98;10.23;;;-4.70;67.30;;;;;;5011929;28;20196;-72
2021/12/23 02:27:17;;;;;;;18.08;10.05;;;-4.90;67.40;;;;;;5014607;28;20195;-75
2021/12/23 02:29:44;;;;;;;17.73;10.10;;;-4.80;67.90;;;;;;5031718;28;20299;-71
2021/12/23 02:32:12;;;;;;;21.40;10.25;;;-4.80;67.60;;;;;;5029732;28;20650;-71
2021/12/23 02:34:39;;;;;;;14.23;9.73;;;-4.90;67.80;;;;;;5011686;28;20284;-71
2021/12/23 02:37:08;;;;;;;18.45;9.63;;;-4.80;68.40;;;;;;5011262;28;20208;-71
2021/12/23 02:39:36;;;;;;;20.83;10.75;;;-4.80;68.50;;;;;;5031458;28;20188;-71
2021/12/23 02:42:05;;;;;;;18.15;9.20;;;-4.80;68.80;;;;;;5029778;28;20196;-71
2021/12/23 02:44:32;;;;;;;20.27;9.65;;;-4.80;69.00;;;;;;5030236;28;20287;-71
2021/12/23 02:46:59;;;;;;;19.20;9.38;;;-4.70;68.80;;;;;;5011716;28;20196;-71
2021/12/23 02:49:27;;;;;;;19.30;9.48;;;-4.70;68.70;;;;;;5011988;28;20293;-71
2021/12/23 02:51:54;;;;;;;15.25;9.93;;;-4.70;68.70;;;;;;5011705;28;20220;-71
2021/12/23 02:54:23;;;;;;;17.48;10.15;;;-4.60;68.90;;;;;;5011691;28;20303;-71
2021/12/23 02:56:50;;;;;;;14.80;8.82;;;-4.60;68.90;;;;;;5030013;28;20242;-71
2021/12/23 02:59:18;;;;;;;17.13;10.05;;;-4.60;68.00;;;;;;5015284;28;20242;-71
2021/12/23 03:01:45;;;;;;;16.40;10.30;;;-4.70;67.70;;;;;;5011632;28;20195;-70
2021/12/23 03:04:13;;;;;;;17.27;8.32;;;-4.70;68.40;;;;;;5025536;28;20237;-70
2021/12/23 03:06:40;;;;;;;16.70;8.30;;;-4.70;68.50;;;;;;5031264;28;20199;-71
2021/12/23 03:09:07;;;;;;;14.00;8.15;;;-4.60;68.20;;;;;;5017335;28;20718;-71
2021/12/23 03:11:36;;;;;;;14.60;9.68;;;-4.60;68.50;;;;;;5011224;28;20262;-72
2021/12/23 03:14:03;;;;;;;14.82;8.20;;;-4.60;68.50;;;;;;5023002;28;20260;-71
2021/12/23 03:16:34;;;;;;;14.35;9.00;;;-4.60;68.70;;;;;;5030931;28;20220;-71
2021/12/23 03:19:01;;;;;;;15.10;8.88;;;-4.50;69.40;;;;;;5022030;28;20187;-71
2021/12/23 03:21:29;;;;;;;15.30;9.90;;;-4.50;68.30;;;;;;5011097;28;20647;-71
2021/12/23 03:23:58;;;;;;;15.13;9.43;;;-4.60;67.80;;;;;;5021630;28;20192;-71
2021/12/23 03:26:25;;;;;;;14.82;8.45;;;-4.60;67.90;;;;;;5030542;28;20286;-70
2021/12/23 03:28:55;;;;;;;16.13;8.50;;;-4.60;68.60;;;;;;5020300;28;20189;-71
2021/12/23 03:31:22;;;;;;;19.70;9.30;;;-4.50;68.70;;;;;;5010878;28;20290;-71
2021/12/23 03:33:49;;;;;;;18.77;10.10;;;-4.50;68.90;;;;;;5019357;28;20199;-72
2021/12/23 03:36:17;;;;;;;21.73;9.52;;;-4.50;69.20;;;;;;5030249;28;20281;-71
2021/12/23 03:38:44;;;;;;;19.67;9.80;;;-4.40;69.30;;;;;;5022591;28;20627;-70
2021/12/23 03:41:11;;;;;;;17.20;11.63;;;-4.40;69.20;;;;;;5010751;28;20633;-70
2021/12/23 03:43:39;;;;;;;15.93;9.60;;;-4.30;69.00;;;;;;5016445;28;20261;-70
2021/12/23 03:46:10;;;;;;;21.05;12.55;;;-4.30;69.10;;;;;;5026080;28;20279;-70
2021/12/23 03:48:37;;;;;;;16.88;9.32;;;-4.30;68.50;;;;;;5009592;28;20218;-71
2021/12/23 03:51:04;;;;;;;21.40;10.43;;;-4.40;67.60;;;;;;5024847;28;20192;-70
2021/12/23 03:53:32;;;;;;;19.52;10.45;;;-4.40;67.30;;;;;;5029910;28;20195;-70
2021/12/23 03:55:59;;;;;;;17.38;9.07;;;-4.50;67.00;;;;;;5015757;28;20227;-71
2021/12/23 03:58:26;;;;;;;17.15;9.63;;;-4.50;66.70;;;;;;5010183;28;20188;-70
2021/12/23 04:00:54;;;;;;;18.35;9.27;;;-4.60;66.60;;;;;;5022432;28;20183;-71
2021/12/23 04:03:23;;;;;;;19.08;8.35;;;-4.60;66.80;;;;;;5030334;28;20195;-70
2021/12/23 04:05:50;;;;;;;15.48;9.38;;;-4.70;66.40;;;;;;5017895;28;20216;-71
2021/12/23 04:08:17;;;;;;;13.60;8.90;;;-4.60;66.60;;;;;;5010607;28;20279;-70
2021/12/23 04:10:45;;;;;;;21.10;10.80;;;-4.70;66.40;;;;;;5020034;28;20395;-70
2021/12/23 04:13:12;;;;;;;19.40;9.30;;;-4.70;66.20;;;;;;5030084;28;20241;-71
2021/12/23 04:15:40;;;;;;;17.52;8.10;;;-4.70;66.00;;;;;;5013322;28;20262;-71
2021/12/23 04:18:07;;;;;;;13.75;7.97;;;-4.70;66.40;;;;;;5010030;28;20223;-70
2021/12/23 04:20:46;;;;;;;17.45;8.85;;;-4.70;66.60;;;;;;5024446;28;20191;-71
2021/12/23 04:23:13;;;;;;;25.20;9.68;;;-4.70;66.50;;;;;;5029570;28;20282;-71
2021/12/23 04:25:40;;;;;;;19.30;9.85;;;-4.70;66.50;;;;;;5014318;28;20234;-71
2021/12/23 04:28:10;;;;;;;24.40;9.95;;;-4.80;66.10;;;;;;5010180;28;20192;-71
2021/12/23 04:30:38;;;;;;;19.10;10.18;;;-4.80;66.40;;;;;;5023703;28;20200;-72
2021/12/23 04:33:05;;;;;;;20.98;9.27;;;-4.80;66.70;;;;;;5029399;28;20257;-72
2021/12/23 04:35:32;;;;;;;17.63;11.50;;;-4.80;66.80;;;;;;5016234;28;20255;-71
2021/12/23 04:38:01;;;;;;;18.40;9.73;;;-4.80;66.70;;;;;;5009826;28;20203;-71
2021/12/23 04:40:30;;;;;;;15.85;10.30;;;-4.80;66.90;;;;;;5021616;28;20196;-71
2021/12/23 04:42:57;;;;;;;18.63;11.27;;;-4.80;66.80;;;;;;5018753;28;20195;-71
2021/12/23 04:45:25;;;;;;;19.90;10.20;;;-4.80;66.90;;;;;;5009892;28;20203;-71
2021/12/23 04:47:52;;;;;;;15.90;11.27;;;-4.80;67.50;;;;;;5018630;28;20191;-71
2021/12/23 04:50:19;;;;;;;16.00;9.48;;;-4.70;68.10;;;;;;5029501;28;20198;-71
2021/12/23 04:52:51;;;;;;;14.27;9.40;;;-4.70;67.90;;;;;;5021476;28;20270;-72
2021/12/23 04:55:20;;;;;;;27.02;8.77;;;-4.70;67.20;;;;;;5009816;28;20196;-72
2021/12/23 04:57:47;;;;;;;15.20;9.20;;;-4.80;66.50;;;;;;5010081;28;20184;-71
2021/12/23 05:00:17;;;;;;;12.82;8.23;;;-4.80;66.50;;;;;;5013181;28;20188;-72
2021/12/23 05:02:45;;;;;;;18.42;10.75;;;-4.80;66.30;;;;;;5032510;28;20560;-71
2021/12/23 05:05:13;;;;;;;18.85;9.75;;;-4.80;66.40;;;;;;5033838;28;20195;-71
2021/12/23 05:07:41;;;;;;;24.25;10.15;;;-4.80;66.60;;;;;;5015533;28;20192;-71
2021/12/23 05:10:10;;;;;;;16.13;9.45;;;-4.90;66.40;;;;;;5014281;28;20241;-71
2021/12/23 05:12:43;;;;;;;17.35;9.38;;;-4.80;66.70;;;;;;5024208;28;20203;-71
2021/12/23 05:15:11;;;;;;;19.45;9.88;;;-4.80;66.80;;;;;;5013490;28;20894;-71
2021/12/23 05:17:39;;;;;;;14.63;8.73;;;-4.80;66.70;;;;;;5015295;28;20222;-71
2021/12/23 05:20:08;;;;;;;17.48;9.55;;;-4.70;66.80;;;;;;5033287;28;20219;-71
2021/12/23 05:22:35;;;;;;;16.63;8.43;;;-4.70;67.00;;;;;;5031416;28;20221;-71
2021/12/23 05:25:03;;;;;;;15.77;7.88;;;-4.70;67.20;;;;;;5013346;28;20239;-71
2021/12/23 05:27:30;;;;;;;16.75;9.10;;;-4.60;67.20;;;;;;5013135;28;20231;-74
2021/12/23 05:30:01;;;;;;;11.88;9.02;;;-4.60;67.20;;;;;;5033308;28;20293;-71
2021/12/23 05:32:28;;;;;;;28.38;9.10;;;-4.60;66.60;;;;;;5033268;28;20192;-71
2021/12/23 05:34:55;;;;;;;16.08;8.15;;;-4.70;65.80;;;;;;5032224;28;20215;-71
2021/12/23 05:37:22;;;;;;;17.95;9.52;;;-4.80;65.70;;;;;;5033031;28;20215;-71
2021/12/23 05:39:50;;;;;;;13.98;7.63;;;-4.80;65.50;;;;;;5014411;28;20474;-71
2021/12/23 05:42:17;;;;;;;13.68;9.00;;;-4.90;64.70;;;;;;5013062;28;20196;-71
2021/12/23 05:44:44;;;;;;;17.20;8.95;;;-4.90;64.40;;;;;;5029281;28;20607;-72
2021/12/23 05:47:13;;;;;;;18.60;9.07;;;-4.90;64.30;;;;;;5032990;28;20187;-71
2021/12/23 05:49:40;;;;;;;12.95;7.85;;;-5.00;64.30;;;;;;5016772;28;20188;-71
2021/12/23 05:52:07;;;;;;;16.75;8.73;;;-5.00;64.40;;;;;;5012813;28;20255;-71
2021/12/23 05:54:35;;;;;;;18.50;10.77;;;-5.10;64.10;;;;;;5026689;28;20598;-71
2021/12/23 05:57:02;;;;;;;17.15;9.63;;;-5.20;64.40;;;;;;5032430;28;20219;-71
2021/12/23 05:59:30;;;;;;;18.75;8.48;;;-5.20;65.20;;;;;;5018888;28;20643;-71
2021/12/23 06:01:57;;;;;;;15.10;9.45;;;-5.30;66.20;;;;;;5012765;28;20192;-71
2021/12/23 06:04:26;;;;;;;14.23;8.30;;;-5.30;66.90;;;;;;5024287;28;20265;-71
2021/12/23 06:06:54;;;;;;;15.48;8.68;;;-5.30;66.90;;;;;;5022368;28;20283;-73
2021/12/23 06:09:21;;;;;;;18.60;9.35;;;-5.30;66.70;;;;;;5012426;28;20668;-71
2021/12/23 06:11:48;;;;;;;15.52;8.52;;;-5.30;65.80;;;;;;5029009;28;20191;-71
2021/12/23 06:14:18;;;;;;;19.25;9.90;;;-5.40;65.90;;;;;;5032363;28;20203;-76
2021/12/23 06:16:45;;;;;;;21.23;11.35;;;-5.40;66.30;;;;;;5015523;28;20224;-72
2021/12/23 06:19:12;;;;;;;17.77;10.20;;;-5.50;66.90;;;;;;5012377;28;20200;-71
2021/12/23 06:21:41;;;;;;;19.52;10.60;;;-5.40;67.50;;;;;;5027613;28;20218;-71
2021/12/23 06:24:10;;;;;;;21.25;11.05;;;-5.40;67.50;;;;;;5032261;28;20296;-71
2021/12/23 06:26:38;;;;;;;22.27;11.57;;;-5.30;68.00;;;;;;5016939;28;20243;-75
2021/12/23 06:29:05;;;;;;;22.58;10.50;;;-5.30;68.30;;;;;;5012076;28;20192;-71
2021/12/23 06:31:32;;;;;;;20.25;10.80;;;-5.20;68.40;;;;;;5024930;28;20556;-71
2021/12/23 06:33:59;;;;;;;19.13;10.05;;;-5.10;68.60;;;;;;5029808;28;20294;-71
2021/12/23 06:36:26;;;;;;;20.83;12.57;;;-5.10;68.60;;;;;;5011844;28;20319;-71
2021/12/23 06:38:56;;;;;;;17.63;11.70;;;-5.00;68.80;;;;;;5025030;28;20196;-71
2021/12/23 06:41:23;;;;;;;20.52;11.50;;;-5.00;68.80;;;;;;5031695;28;20196;-71
2021/12/23 06:43:51;;;;;;;20.63;10.15;;;-4.90;68.70;;;;;;5019011;28;20224;-71
2021/12/23 06:46:18;;;;;;;16.23;9.68;;;-4.90;68.70;;;;;;5011821;28;20199;-71
2021/12/23 06:48:45;;;;;;;18.05;10.60;;;-4.90;68.40;;;;;;5022505;28;20274;-72
2021/12/23 06:51:12;;;;;;;14.00;8.00;;;-4.90;67.40;;;;;;5031837;28;20265;-71
2021/12/23 06:53:40;;;;;;;18.15;10.77;;;-4.90;67.30;;;;;;5021370;28;20300;-71
2021/12/23 06:56:10;;;;;;;14.50;9.15;;;-4.90;67.10;;;;;;5011696;28;20203;-71
2021/12/23 06:58:38;;;;;;;22.67;9.20;;;-4.90;67.20;;;;;;5020267;28;20202;-71
2021/12/23 07:01:06;;;;;;;15.10;7.88;;;-5.00;66.40;;;;;;5031377;28;20254;-71
2021/12/23 07:03:51;;;;;;;12.75;8.55;;;-5.00;66.20;;;;;;5023394;28;20189;-71
2021/12/23 07:06:22;;;;;;;13.55;7.85;;;-5.00;66.30;;;;;;5015741;28;20226;-74
2021/12/23 07:08:49;;;;;;;18.15;8.85;;;-5.10;66.10;;;;;;5028135;28;20231;-74
2021/12/23 07:11:18;;;;;;;14.30;8.38;;;-5.10;65.80;;;;;;5045331;28;20195;-72
2021/12/23 07:13:45;;;;;;;10.70;7.07;;;-5.10;66.00;;;;;;5027035;28;20191;-71
2021/12/23 07:16:13;;;;;;;11.77;7.40;;;-5.10;66.40;;;;;;5029959;28;20191;-72
2021/12/23 07:18:40;;;;;;;14.65;8.30;;;-5.00;66.70;;;;;;5027891;28;20541;-71
2021/12/23 07:21:07;;;;;;;17.42;7.15;;;-5.10;66.50;;;;;;5042899;28;20282;-71
2021/12/23 07:23:34;;;;;;;17.27;8.80;;;-5.10;66.90;;;;;;5030518;28;20688;-72
2021/12/23 07:26:01;;;;;;;27.60;11.50;;;-5.00;67.40;;;;;;5029737;28;20187;-71
2021/12/23 07:28:30;;;;;;;18.27;9.73;;;-4.90;67.10;;;;;;5030262;28;20199;-72
2021/12/23 07:30:58;;;;;;;15.75;7.78;;;-4.90;66.10;;;;;;5023529;28;20188;-71
2021/12/23 07:33:25;;;;;;;17.63;9.85;;;-4.80;66.10;;;;;;5030473;28;20196;-72
2021/12/23 07:35:52;;;;;;;14.45;8.50;;;-4.70;66.20;;;;;;5029523;28;20220;-71
2021/12/23 07:38:19;;;;;;;16.35;10.23;;;-4.60;66.80;;;;;;5030345;28;20227;-72
2021/12/23 07:40:47;;;;;;;21.38;10.23;;;-4.40;67.40;;;;;;5027475;28;20535;-72
2021/12/23 07:43:31;;;;;;;27.38;13.77;;;-4.20;67.80;;;;;;5030272;28;20195;-72
2021/12/23 07:46:01;;;;;;;27.73;15.35;;;-4.00;66.40;;;;;;5029643;28;20262;-71
2021/12/23 07:48:28;;;;;;;24.20;13.60;;;-3.80;67.10;;;;;;5030283;28;20654;-72
2021/12/23 07:51:03;;;;;;;31.55;17.58;;;-3.50;66.30;;;;;;5025614;28;20272;-72
2021/12/23 07:53:31;;;;;;;26.50;17.33;;;-3.30;65.20;;;;;;5030085;28;20288;-71
2021/12/23 07:55:58;;;;;;;31.73;17.40;;;-3.20;63.20;;;;;;5030822;28;20191;-71
2021/12/23 07:58:25;;;;;;;30.45;17.23;;;-3.00;62.00;;;;;;5030680;28;20223;-71
2021/12/23 08:00:52;;;;;;;30.48;16.42;;;-3.00;62.80;;;;;;5029990;28;20681;-71
2021/12/23 08:03:20;;;;;;;27.92;15.45;;;-2.90;62.90;;;;;;5029923;28;20264;-71
2021/12/23 08:05:47;;;;;;;26.08;15.68;;;-2.80;63.60;;;;;;5031409;28;20223;-72
2021/12/23 08:08:14;;;;;;;29.45;14.88;;;-2.80;62.90;;;;;;5043104;28;20269;-72
2021/12/23 08:10:41;;;;;;;24.50;14.60;;;-2.70;62.80;;;;;;5048009;28;20609;-71
2021/12/23 08:13:08;;;;;;;27.95;17.75;;;-2.70;63.50;;;;;;5030588;28;20270;-71
2021/12/23 08:15:35;;;;;;;27.50;16.35;;;-2.50;63.60;;;;;;5031435;28;20206;-72
2021/12/23 08:18:02;;;;;;;26.92;15.90;;;-2.40;64.00;;;;;;5029108;28;20330;-71
2021/12/23 08:20:30;;;;;;;25.08;13.35;;;-2.30;63.20;;;;;;5031014;28;20197;-72
2021/12/23 08:22:57;;;;;;;27.40;16.50;;;;;;;;;;5030026;28;20194;-72
2021/12/23 08:25:25;;;;;;;34.13;16.35;;;;;;;;;;5031062;28;20720;-72
2021/12/23 08:27:52;;;;;;;25.25;11.30;;;;;;;;;;5026074;28;20578;-72
2021/12/23 08:30:20;;;;;;;19.25;11.40;;;;;;;;;;5030963;28;20249;-72
2021/12/23 08:32:48;;;;;;;21.65;12.13;;;;;;;;;;5029789;28;20191;-72
2021/12/23 08:35:16;;;;;;;20.70;10.93;;;;;;;;;;5030548;28;20323;-72
2021/12/23 08:37:46;;;;;;;17.65;10.45;;;;;;;;;;5026779;28;20699;-72
2021/12/23 08:40:15;;;;;;;14.82;8.60;;;-2.10;63.00;;;;;;5025746;28;20210;-72
2021/12/23 08:42:47;;;;;;;13.75;8.75;;;-1.00;63.30;;;;;;5030188;28;20221;-72
2021/12/23 08:45:15;;;;;;;14.65;9.10;;;-0.70;62.60;;;;;;5029482;28;20388;-72
2021/12/23 08:47:42;;;;;;;16.13;8.60;;;-0.50;63.30;;;;;;5026742;28;20562;-72
2021/12/23 08:50:11;;;;;;;13.35;8.75;;;-0.20;63.10;;;;;;5030465;28;20730;-72
2021/12/23 08:52:38;;;;;;;14.25;7.88;;;0.20;62.80;;;;;;5031183;28;20211;-72
2021/12/23 08:55:08;;;;;;;11.98;6.93;;;0.60;62.80;;;;;;5028068;28;20266;-73
2021/12/23 08:57:37;;;;;;;10.57;6.68;;;1.00;60.70;;;;;;5031635;28;20261;-72
2021/12/23 09:00:07;;;;;;;13.25;7.65;;;1.30;59.10;;;;;;5029540;28;20187;-72
2021/12/23 09:02:34;;;;;;;10.25;6.55;;;1.50;59.00;;;;;;5031400;28;20191;-72
2021/12/23 09:05:01;;;;;;;12.85;7.72;;;1.60;57.20;;;;;;5030612;28;20190;-72
2021/12/23 09:07:28;;;;;;;10.02;6.90;;;1.60;57.40;;;;;;5030748;28;20227;-72
2021/12/23 09:09:55;;;;;;;11.55;6.45;;;1.70;57.40;;;;;;5027142;28;20188;-72
2021/12/23 09:12:24;;;;;;;15.50;8.27;;;1.90;56.70;;;;;;5031504;28;20192;-73
2021/12/23 09:14:51;;;;;;;20.95;7.40;;;2.20;55.90;;;;;;5030943;28;20191;-72
2021/12/23 09:17:18;;;;;;;13.30;8.43;;;2.10;54.60;;;;;;5029012;28;20288;-72
2021/12/23 09:19:46;;;;;;;14.38;9.93;;;2.00;55.20;;;;;;5040900;28;20194;-73
2021/12/23 09:22:15;;;;;;;13.38;9.27;;;1.80;55.40;;;;;;5037065;28;20623;-73
2021/12/23 09:24:45;;;;;;;14.32;8.65;;;1.80;55.60;;;;;;5030983;28;20188;-72
2021/12/23 09:27:23;;;;;;;14.50;7.10;;;1.70;55.30;;;;;;5031028;28;20198;-73
2021/12/23 09:32:54;;;;;;;8.45;6.60;;;1.70;56.30;;;;;;5040589;28;20207;-72
2021/12/23 09:35:24;;;;;;;10.02;6.00;;;1.60;56.50;;;;;;5029269;28;20570;-73
2021/12/23 09:37:52;;;;;;;10.88;6.72;;;1.80;57.40;;;;;;5026104;28;20309;-71
2021/12/23 09:40:23;;;;;;;9.65;5.53;;;2.10;58.00;;;;;;5031640;28;20279;-72
2021/12/23 09:42:50;;;;;;;10.32;7.30;;;2.30;58.20;;;;;;5028108;28;20598;-73
2021/12/23 09:45:19;;;;;;;10.32;5.90;;;2.50;58.00;;;;;;5031809;28;20298;-73
2021/12/23 09:47:48;;;;;;;8.80;6.20;;;3.00;56.90;;;;;;5030930;28;20195;-73
2021/12/23 09:50:18;;;;;;;9.60;6.20;;;3.50;56.20;;;;;;5035574;28;20298;-72
2021/12/23 09:52:47;;;;;;;11.13;7.32;;;3.90;54.30;;;;;;5035055;28;20223;-74
2021/12/23 09:55:19;;;;;;;9.20;6.10;;;4.20;54.50;;;;;;5046844;28;20188;-73
2021/12/23 09:57:47;;;;;;;11.40;7.45;;;4.60;55.00;;;;;;5033074;28;20740;-73
2021/12/23 10:00:19;;;;;;;11.55;6.07;;;4.60;54.40;;;;;;5031517;28;20178;-73
2021/12/23 10:02:47;;;;;;;11.65;7.40;;;4.70;54.40;;;;;;5034662;28;20187;-73
2021/12/23 10:05:17;;;;;;;8.52;5.85;;;4.70;54.50;;;;;;5036135;28;20268;-73
2021/12/23 10:07:47;;;;;;;9.30;5.28;;;4.60;53.60;;;;;;5037652;28;20704;-73
2021/12/23 10:10:20;;;;;;;6.30;5.38;;;4.40;52.80;;;;;;5040759;28;20195;-73
2021/12/23 10:27:17;;;;;;;13.45;7.40;;;5.30;53.20;;;;;;5034899;28;20205;-71
2021/12/23 10:32:55;;;;;;;10.60;7.57;;;6.20;54.00;;;;;;5039182;28;20205;-74
2021/12/23 10:38:11;;;;;;;8.77;5.95;;;7.10;52.80;;;;;;5031504;28;20238;-73
2021/12/23 10:40:42;;;;;;;11.75;6.80;;;7.50;50.60;;;;;;5033987;28;20646;-74
2021/12/23 10:43:11;;;;;;;17.23;5.70;;;7.80;51.50;;;;;;5029523;28;20195;-73
2021/12/23 10:45:46;;;;;;;6.90;4.97;;;8.20;52.20;;;;;;5034032;28;20253;-73
2021/12/23 10:48:16;;;;;;;7.75;5.57;;;8.50;50.60;;;;;;5031315;28;21849;-74
2021/12/23 10:50:47;;;;;;;8.23;5.45;;;8.70;50.70;;;;;;5034118;28;20196;-73
2021/12/23 10:53:28;;;;;;;9.98;6.05;;;9.00;50.00;;;;;;5033367;28;20195;-73
2021/12/23 10:59:08;;;;;;;9.63;6.13;;;9.50;49.60;;;;;;5028594;28;20235;-73
2021/12/23 11:01:38;;;;;;;9.75;7.28;;;9.90;48.30;;;;;;5031596;28;20281;-73
2021/12/23 11:04:08;;;;;;;9.13;6.47;;;10.00;46.90;;;;;;5051146;28;20195;-73
2021/12/23 11:06:41;;;;;;;9.30;6.47;;;10.10;47.50;;;;;;5051710;28;20191;-73
2021/12/23 11:09:30;;;;;;;9.25;6.75;;;10.30;47.10;;;;;;5030782;28;20245;-73
2021/12/23 11:37:50;;;;;;;3.40;2.17;;;10.10;32.30;;;;;;5023860;28;20576;-73
2021/12/23 11:40:36;;;;;;;9.32;2.40;;;9.90;31.70;;;;;;5029988;28;20202;-75
2021/12/23 11:43:27;;;;;;;3.75;2.13;;;9.70;32.30;;;;;;5032572;28;20545;-73
2021/12/23 11:45:55;;;;;;;7.25;2.70;;;9.50;33.20;;;;;;5032955;28;20207;-73
2021/12/23 11:48:22;;;;;;;4.50;3.20;;;9.30;34.40;;;;;;5032427;28;20213;-74
2021/12/23 11:51:06;;;;;;;3.45;2.70;;;9.30;35.90;;;;;;5033193;28;20191;-73
2021/12/23 11:53:36;;;;;;;8.18;3.67;;;9.50;36.10;;;;;;5031752;28;20183;-74
2021/12/23 11:56:09;;;;;;;5.30;2.67;;;9.90;37.00;;;;;;5030967;28;20191;-73
2021/12/23 11:58:41;;;;;;;4.70;2.42;;;10.30;35.10;;;;;;5030627;28;20219;-74
2021/12/23 12:01:15;;;;;;;7.13;2.08;;;10.70;34.80;;;;;;5032138;28;20286;-73
2021/12/23 12:03:57;;;;;;;4.15;2.20;;;11.00;33.10;;;;;;5033420;28;20607;-74
2021/12/23 12:06:27;;;;;;;3.90;1.60;;;11.20;33.50;;;;;;5032674;28;20253;-73
2021/12/23 12:09:10;;;;;;;6.00;2.25;;;11.60;32.20;;;;;;5027044;28;20194;-74
2021/12/23 12:11:37;;;;;;;3.75;2.40;;;11.80;31.50;;;;;;5032255;28;20546;-73
2021/12/23 12:14:04;;;;;;;4.55;2.00;;;12.10;30.00;;;;;;5032812;28;20241;-73
2021/12/23 12:16:34;;;;;;;4.25;1.83;;;12.20;29.50;;;;;;5033066;28;20189;-74
2021/12/23 12:19:03;;;;;;;3.72;1.95;;;12.40;29.70;;;;;;5050102;28;20254;-76
2021/12/23 12:21:34;;;;;;;3.90;2.28;;;12.50;29.10;;;;;;5033753;28;20194;-73
2021/12/23 12:24:15;;;;;;;4.80;2.00;;;12.60;29.90;;;;;;5042749;28;20285;-73
2021/12/23 12:26:57;;;;;;;4.00;2.70;;;12.90;28.10;;;;;;5038585;28;20606;-74
2021/12/23 12:29:34;;;;;;;4.85;2.50;;;13.00;28.20;;;;;;5034773;28;20191;-74
2021/12/23 12:32:01;;;;;;;5.03;2.10;;;13.10;28.10;;;;;;5041601;28;20226;-74
2021/12/23 12:34:34;;;;;;;10.52;4.03;;;13.20;28.50;;;;;;5033015;28;20515;-74
2021/12/23 12:37:03;;;;;;;4.00;2.47;;;13.10;28.00;;;;;;5037060;28;20545;-74
2021/12/23 12:39:36;;;;;;;3.30;1.60;;;13.10;27.90;;;;;;5038090;28;20500;-74
2021/12/23 12:42:08;;;;;;;3.23;1.67;;;13.00;28.60;;;;;;5035912;28;20537;-72
2021/12/23 12:44:45;;;;;;;3.40;1.77;;;12.90;28.90;;;;;;5037330;28;20524;-73
2021/12/23 12:47:24;;;;;;;3.25;1.98;;;13.00;28.10;;;;;;5037186;28;20801;-73
2021/12/23 12:49:54;;;;;;;3.80;1.83;;;13.00;27.60;;;;;;5040563;28;20644;-73
2021/12/23 12:52:31;;;;;;;3.43;2.00;;;13.20;27.70;;;;;;5037883;28;20445;-74
2021/12/23 12:55:03;;;;;;;3.43;1.87;;;13.20;27.80;;;;;;5040252;28;20494;-74
2021/12/23 12:57:36;;;;;;;5.40;2.70;;;13.40;28.50;;;;;;5033509;28;20472;-74
2021/12/23 13:00:34;;;;;;;4.63;2.53;;;13.40;28.10;;;;;;5038213;28;20438;-73
2021/12/23 13:03:07;;;;;;;2.97;1.60;;;13.40;27.60;;;;;;4996100;28;20453;-75
2021/12/23 13:05:38;;;;;;;4.90;1.80;;;13.40;27.30;;;;;;5037511;28;20493;-73
2021/12/23 13:08:17;;;;;;;2.90;1.90;;;13.40;27.50;;;;;;5038741;28;20975;-74
2021/12/23 13:10:48;;;;;;;3.07;1.70;;;13.50;26.70;;;;;;5039607;28;20438;-75
2021/12/23 13:13:26;;;;;;;3.10;1.13;;;13.50;27.70;;;;;;5032843;28;20489;-74
2021/12/23 13:15:58;;;;;;;2.87;1.37;;;13.50;26.40;;;;;;5031668;28;20442;-73
2021/12/23 13:18:25;;;;;;;2.03;1.00;;;13.40;26.10;;;;;;5041482;28;20459;-73
2021/12/23 13:20:54;;;;;;;2.60;1.07;;;13.20;25.60;;;;;;5041374;28;20468;-75
2021/12/23 13:23:29;;;;;;;1.70;0.87;;;13.00;25.00;;;;;;5047234;28;20444;-74
2021/12/23 13:26:01;;;;;;;2.93;1.10;;;12.90;25.60;;;;;;5047765;28;20437;-73
2021/12/23 13:28:34;;;;;;;3.20;0.80;;;12.70;24.60;;;;;;5047073;28;20491;-74
2021/12/23 13:31:02;;;;;;;1.73;0.60;;;12.70;25.20;;;;;;5040820;28;20445;-73
2021/12/23 13:33:30;;;;;;;2.10;1.10;;;12.70;24.80;;;;;;5049638;28;20465;-75
2021/12/23 13:35:58;;;;;;;1.90;0.97;;;12.60;24.50;;;;;;5037619;28;20534;-73
2021/12/23 13:38:32;;;;;;;1.93;0.80;;;12.50;23.80;;;;;;5048709;28;20983;-73
2021/12/23 13:41:26;;;;;;;3.70;1.40;;;12.40;23.40;;;;;;5044049;28;20515;-74
2021/12/23 13:43:56;;;;;;;1.90;1.07;;;12.20;24.10;;;;;;5043886;28;20776;-73
2021/12/23 13:46:26;;;;;;;2.47;1.13;;;12.20;24.20;;;;;;5036550;28;20443;-73